KDLH

Duluth International Airport

Duluth, Minnesota, USA
METAR KDLH 161755Z 36003KT 10SM CLR M15/M22 A3028 RMK AO2 SLP294 I6000 T11501217 11150 21200 50000
Observed Flight Rules
Jan-16 @ 17:55 UTC (50 minutes ago) Visual Flight Rules
Wind Visibility Clouds
360° at 3 knots 10 miles
  • Clear skies
Temperatures Readings
Current -15°C / 5°F
Dewpoint -22°C / -8°F
Humidity 55%
Altimeter 30.28" Hg
Pressure 1029.4 hPa
Elevation 435
METAR KDLH 161755Z 36003KT 10SM CLR M15/M22 A3028 RMK AO2 SLP294 I6000 T11501217 11150 21200 50000
Observed Flight Rules
Jan-16 @ 17:55 UTC
(50 minutes ago)
VFR
Wind Visibility
360° at 3 knots 10 miles
Clouds
  • Clear skies
Temperature Dewpoint
-15°C / 5°F -22°C / -8°F
Humidity Altimeter Pressure
55% 30.28" Hg 1029.4 hPa